sensor_id;sensor_type;location;lat;lon;timestamp;P1;durP1;ratioP1;P2;durP2;ratioP2
50417;SDS011;36346;48.280;14.292;2023-03-16T00:02:17;10.43;;;10.41;;
50417;SDS011;36346;48.280;14.292;2023-03-16T00:04:45;10.25;;;10.24;;
50417;SDS011;36346;48.280;14.292;2023-03-16T00:07:14;11.73;;;11.70;;
50417;SDS011;36346;48.280;14.292;2023-03-16T00:09:42;12.83;;;12.80;;
50417;SDS011;36346;48.280;14.292;2023-03-16T00:12:11;11.14;;;11.10;;
50417;SDS011;36346;48.280;14.292;2023-03-16T00:14:46;11.36;;;11.36;;
50417;SDS011;36346;48.280;14.292;2023-03-16T00:17:16;11.29;;;11.29;;
50417;SDS011;36346;48.280;14.292;2023-03-16T00:19:49;10.81;;;10.81;;
50417;SDS011;36346;48.280;14.292;2023-03-16T00:22:26;10.89;;;10.89;;
50417;SDS011;36346;48.280;14.292;2023-03-16T00:24:56;11.03;;;11.03;;
50417;SDS011;36346;48.280;14.292;2023-03-16T00:27:31;11.58;;;11.56;;
50417;SDS011;36346;48.280;14.292;2023-03-16T00:30:00;10.84;;;10.83;;
50417;SDS011;36346;48.280;14.292;2023-03-16T00:32:33;10.97;;;10.94;;
50417;SDS011;36346;48.280;14.292;2023-03-16T00:35:04;10.33;;;10.28;;
50417;SDS011;36346;48.280;14.292;2023-03-16T00:37:36;10.61;;;10.60;;
50417;SDS011;36346;48.280;14.292;2023-03-16T00:40:08;10.64;;;10.63;;
50417;SDS011;36346;48.280;14.292;2023-03-16T00:42:42;11.30;;;11.30;;
50417;SDS011;36346;48.280;14.292;2023-03-16T00:45:10;11.17;;;11.17;;
50417;SDS011;36346;48.280;14.292;2023-03-16T00:47:38;11.71;;;11.70;;
50417;SDS011;36346;48.280;14.292;2023-03-16T00:50:06;11.65;;;11.65;;
50417;SDS011;36346;48.280;14.292;2023-03-16T00:52:35;12.12;;;12.10;;
50417;SDS011;36346;48.280;14.292;2023-03-16T00:55:03;12.29;;;12.29;;
50417;SDS011;36346;48.280;14.292;2023-03-16T00:57:32;12.61;;;12.58;;
50417;SDS011;36346;48.280;14.292;2023-03-16T01:00:00;11.79;;;11.79;;
50417;SDS011;36346;48.280;14.292;2023-03-16T01:02:39;11.72;;;11.68;;
50417;SDS011;36346;48.280;14.292;2023-03-16T01:05:10;11.60;;;11.55;;
50417;SDS011;36346;48.280;14.292;2023-03-16T01:07:40;11.23;;;11.23;;
50417;SDS011;36346;48.280;14.292;2023-03-16T01:10:10;11.40;;;11.40;;
50417;SDS011;36346;48.280;14.292;2023-03-16T01:12:38;11.50;;;11.49;;
50417;SDS011;36346;48.280;14.292;2023-03-16T01:15:06;11.06;;;11.06;;
50417;SDS011;36346;48.280;14.292;2023-03-16T01:17:35;11.62;;;11.62;;
50417;SDS011;36346;48.280;14.292;2023-03-16T01:20:03;10.99;;;10.99;;
50417;SDS011;36346;48.280;14.292;2023-03-16T01:22:35;10.92;;;10.92;;
50417;SDS011;36346;48.280;14.292;2023-03-16T01:25:03;11.33;;;11.33;;
50417;SDS011;36346;48.280;14.292;2023-03-16T01:27:33;10.67;;;10.67;;
50417;SDS011;36346;48.280;14.292;2023-03-16T01:30:01;10.99;;;10.99;;
50417;SDS011;36346;48.280;14.292;2023-03-16T01:32:32;10.98;;;10.98;;
50417;SDS011;36346;48.280;14.292;2023-03-16T01:35:06;10.61;;;10.61;;
50417;SDS011;36346;48.280;14.292;2023-03-16T01:37:35;10.19;;;10.19;;
50417;SDS011;36346;48.280;14.292;2023-03-16T01:40:15;10.87;;;10.87;;
50417;SDS011;36346;48.280;14.292;2023-03-16T01:42:47;10.91;;;10.91;;
50417;SDS011;36346;48.280;14.292;2023-03-16T01:48:58;10.28;;;10.28;;
50417;SDS011;36346;48.280;14.292;2023-03-16T01:54:34;9.46;;;9.46;;
50417;SDS011;36346;48.280;14.292;2023-03-16T01:57:18;9.95;;;9.95;;
50417;SDS011;36346;48.280;14.292;2023-03-16T02:02:50;10.33;;;10.33;;
50417;SDS011;36346;48.280;14.292;2023-03-16T02:05:42;9.13;;;9.13;;
50417;SDS011;36346;48.280;14.292;2023-03-16T02:08:18;9.89;;;9.89;;
50417;SDS011;36346;48.280;14.292;2023-03-16T02:10:49;9.54;;;9.54;;
50417;SDS011;36346;48.280;14.292;2023-03-16T02:13:23;9.76;;;9.76;;
50417;SDS011;36346;48.280;14.292;2023-03-16T02:15:52;9.11;;;9.11;;
50417;SDS011;36346;48.280;14.292;2023-03-16T02:18:21;9.25;;;9.25;;
50417;SDS011;36346;48.280;14.292;2023-03-16T02:23:48;9.80;;;9.80;;
50417;SDS011;36346;48.280;14.292;2023-03-16T02:32:01;9.52;;;9.52;;
50417;SDS011;36346;48.280;14.292;2023-03-16T02:34:32;9.31;;;9.31;;
50417;SDS011;36346;48.280;14.292;2023-03-16T02:37:02;9.13;;;9.13;;
50417;SDS011;36346;48.280;14.292;2023-03-16T02:39:31;8.73;;;8.73;;
50417;SDS011;36346;48.280;14.292;2023-03-16T02:42:00;8.72;;;8.72;;
50417;SDS011;36346;48.280;14.292;2023-03-16T02:44:30;8.56;;;8.56;;
50417;SDS011;36346;48.280;14.292;2023-03-16T02:47:05;8.37;;;8.37;;
50417;SDS011;36346;48.280;14.292;2023-03-16T02:49:39;8.58;;;8.58;;
50417;SDS011;36346;48.280;14.292;2023-03-16T02:52:12;8.28;;;8.28;;
50417;SDS011;36346;48.280;14.292;2023-03-16T02:54:40;8.67;;;8.67;;
50417;SDS011;36346;48.280;14.292;2023-03-16T02:57:09;8.43;;;8.43;;
50417;SDS011;36346;48.280;14.292;2023-03-16T02:59:37;8.50;;;8.50;;
50417;SDS011;36346;48.280;14.292;2023-03-16T03:02:05;8.43;;;8.43;;
50417;SDS011;36346;48.280;14.292;2023-03-16T03:04:37;8.34;;;8.34;;
50417;SDS011;36346;48.280;14.292;2023-03-16T03:07:06;8.27;;;8.27;;
50417;SDS011;36346;48.280;14.292;2023-03-16T03:09:50;8.63;;;8.63;;
50417;SDS011;36346;48.280;14.292;2023-03-16T03:12:21;8.85;;;8.84;;
50417;SDS011;36346;48.280;14.292;2023-03-16T03:14:49;8.60;;;8.60;;
50417;SDS011;36346;48.280;14.292;2023-03-16T03:17:20;8.67;;;8.67;;
50417;SDS011;36346;48.280;14.292;2023-03-16T03:19:48;8.85;;;8.85;;
50417;SDS011;36346;48.280;14.292;2023-03-16T03:22:16;8.94;;;8.94;;
50417;SDS011;36346;48.280;14.292;2023-03-16T03:24:45;8.67;;;8.67;;
50417;SDS011;36346;48.280;14.292;2023-03-16T03:27:13;9.28;;;9.28;;
50417;SDS011;36346;48.280;14.292;2023-03-16T03:29:42;8.92;;;8.92;;
50417;SDS011;36346;48.280;14.292;2023-03-16T03:32:11;8.65;;;8.65;;
50417;SDS011;36346;48.280;14.292;2023-03-16T03:34:41;8.65;;;8.65;;
50417;SDS011;36346;48.280;14.292;2023-03-16T03:37:11;8.71;;;8.71;;
50417;SDS011;36346;48.280;14.292;2023-03-16T03:39:41;8.76;;;8.76;;
50417;SDS011;36346;48.280;14.292;2023-03-16T03:42:10;9.17;;;9.17;;
50417;SDS011;36346;48.280;14.292;2023-03-16T03:44:40;9.30;;;9.30;;
50417;SDS011;36346;48.280;14.292;2023-03-16T03:47:09;9.48;;;9.48;;
50417;SDS011;36346;48.280;14.292;2023-03-16T03:49:37;9.27;;;9.27;;
50417;SDS011;36346;48.280;14.292;2023-03-16T03:52:05;8.89;;;8.89;;
50417;SDS011;36346;48.280;14.292;2023-03-16T03:54:34;9.20;;;9.20;;
50417;SDS011;36346;48.280;14.292;2023-03-16T03:57:08;8.86;;;8.86;;
50417;SDS011;36346;48.280;14.292;2023-03-16T03:59:38;9.14;;;9.14;;
50417;SDS011;36346;48.280;14.292;2023-03-16T04:02:22;8.81;;;8.81;;
50417;SDS011;36346;48.280;14.292;2023-03-16T04:04:53;9.60;;;9.60;;
50417;SDS011;36346;48.280;14.292;2023-03-16T04:07:21;9.27;;;9.27;;
50417;SDS011;36346;48.280;14.292;2023-03-16T04:09:54;9.83;;;9.83;;
50417;SDS011;36346;48.280;14.292;2023-03-16T04:12:27;9.54;;;9.54;;
50417;SDS011;36346;48.280;14.292;2023-03-16T04:14:55;9.35;;;9.35;;
50417;SDS011;36346;48.280;14.292;2023-03-16T04:17:26;9.25;;;9.25;;
50417;SDS011;36346;48.280;14.292;2023-03-16T04:19:57;9.17;;;9.17;;
50417;SDS011;36346;48.280;14.292;2023-03-16T04:22:25;9.04;;;9.04;;
50417;SDS011;36346;48.280;14.292;2023-03-16T04:24:53;9.01;;;9.01;;
50417;SDS011;36346;48.280;14.292;2023-03-16T04:27:24;9.36;;;9.36;;
50417;SDS011;36346;48.280;14.292;2023-03-16T04:29:53;9.20;;;9.20;;
50417;SDS011;36346;48.280;14.292;2023-03-16T04:32:27;9.50;;;9.50;;
50417;SDS011;36346;48.280;14.292;2023-03-16T04:34:57;9.16;;;9.16;;
50417;SDS011;36346;48.280;14.292;2023-03-16T04:37:36;8.79;;;8.79;;
50417;SDS011;36346;48.280;14.292;2023-03-16T04:40:05;8.95;;;8.95;;
50417;SDS011;36346;48.280;14.292;2023-03-16T04:42:38;8.95;;;8.95;;
50417;SDS011;36346;48.280;14.292;2023-03-16T04:45:07;8.94;;;8.94;;
50417;SDS011;36346;48.280;14.292;2023-03-16T04:47:37;8.82;;;8.82;;
50417;SDS011;36346;48.280;14.292;2023-03-16T04:50:06;8.99;;;8.99;;
50417;SDS011;36346;48.280;14.292;2023-03-16T04:52:35;9.07;;;9.06;;
50417;SDS011;36346;48.280;14.292;2023-03-16T04:55:03;9.04;;;9.04;;
50417;SDS011;36346;48.280;14.292;2023-03-16T04:57:52;8.92;;;8.92;;
50417;SDS011;36346;48.280;14.292;2023-03-16T05:00:22;8.35;;;8.35;;
50417;SDS011;36346;48.280;14.292;2023-03-16T05:03:08;8.46;;;8.46;;
50417;SDS011;36346;48.280;14.292;2023-03-16T05:05:40;8.83;;;8.83;;
50417;SDS011;36346;48.280;14.292;2023-03-16T05:08:10;9.41;;;9.39;;
50417;SDS011;36346;48.280;14.292;2023-03-16T05:10:43;8.39;;;8.38;;
50417;SDS011;36346;48.280;14.292;2023-03-16T05:13:12;8.70;;;8.69;;
50417;SDS011;36346;48.280;14.292;2023-03-16T05:15:44;8.31;;;8.31;;
50417;SDS011;36346;48.280;14.292;2023-03-16T05:18:22;8.11;;;8.11;;
50417;SDS011;36346;48.280;14.292;2023-03-16T05:20:52;8.42;;;8.42;;
50417;SDS011;36346;48.280;14.292;2023-03-16T05:23:28;8.91;;;8.91;;
50417;SDS011;36346;48.280;14.292;2023-03-16T05:26:00;9.23;;;9.23;;
50417;SDS011;36346;48.280;14.292;2023-03-16T05:28:32;10.05;;;10.05;;
50417;SDS011;36346;48.280;14.292;2023-03-16T05:31:03;9.38;;;9.38;;
50417;SDS011;36346;48.280;14.292;2023-03-16T05:33:42;9.35;;;9.35;;
50417;SDS011;36346;48.280;14.292;2023-03-16T05:36:15;9.37;;;9.37;;
50417;SDS011;36346;48.280;14.292;2023-03-16T05:38:47;10.37;;;10.37;;
50417;SDS011;36346;48.280;14.292;2023-03-16T05:41:26;10.57;;;10.57;;
50417;SDS011;36346;48.280;14.292;2023-03-16T05:44:09;10.58;;;10.58;;
50417;SDS011;36346;48.280;14.292;2023-03-16T05:46:52;10.50;;;10.50;;
50417;SDS011;36346;48.280;14.292;2023-03-16T05:49:22;9.79;;;9.79;;
50417;SDS011;36346;48.280;14.292;2023-03-16T05:51:51;9.45;;;9.45;;
50417;SDS011;36346;48.280;14.292;2023-03-16T05:54:19;9.60;;;9.60;;
50417;SDS011;36346;48.280;14.292;2023-03-16T05:56:56;9.65;;;9.65;;
50417;SDS011;36346;48.280;14.292;2023-03-16T05:59:25;9.89;;;9.89;;
50417;SDS011;36346;48.280;14.292;2023-03-16T06:01:56;9.95;;;9.95;;
50417;SDS011;36346;48.280;14.292;2023-03-16T06:04:26;11.92;;;11.92;;
50417;SDS011;36346;48.280;14.292;2023-03-16T06:06:55;13.34;;;13.34;;
50417;SDS011;36346;48.280;14.292;2023-03-16T06:09:26;12.95;;;12.91;;
50417;SDS011;36346;48.280;14.292;2023-03-16T06:11:55;12.79;;;12.78;;
50417;SDS011;36346;48.280;14.292;2023-03-16T06:14:23;12.44;;;12.40;;
50417;SDS011;36346;48.280;14.292;2023-03-16T06:16:53;12.94;;;12.93;;
50417;SDS011;36346;48.280;14.292;2023-03-16T06:19:22;13.73;;;13.73;;
50417;SDS011;36346;48.280;14.292;2023-03-16T06:21:54;11.86;;;11.86;;
50417;SDS011;36346;48.280;14.292;2023-03-16T06:24:23;11.56;;;11.56;;
50417;SDS011;36346;48.280;14.292;2023-03-16T06:26:51;13.49;;;13.42;;
50417;SDS011;36346;48.280;14.292;2023-03-16T06:29:22;13.21;;;13.02;;
50417;SDS011;36346;48.280;14.292;2023-03-16T06:31:51;11.07;;;11.06;;
50417;SDS011;36346;48.280;14.292;2023-03-16T06:34:22;10.51;;;10.50;;
50417;SDS011;36346;48.280;14.292;2023-03-16T06:36:50;11.54;;;11.48;;
50417;SDS011;36346;48.280;14.292;2023-03-16T06:39:19;11.26;;;11.21;;
50417;SDS011;36346;48.280;14.292;2023-03-16T06:41:50;10.79;;;10.73;;
50417;SDS011;36346;48.280;14.292;2023-03-16T06:44:17;9.43;;;9.37;;
50417;SDS011;36346;48.280;14.292;2023-03-16T06:47:13;10.71;;;10.71;;
50417;SDS011;36346;48.280;14.292;2023-03-16T06:49:40;11.58;;;11.57;;
50417;SDS011;36346;48.280;14.292;2023-03-16T06:52:16;16.17;;;15.71;;
50417;SDS011;36346;48.280;14.292;2023-03-16T06:54:46;18.89;;;17.94;;
50417;SDS011;36346;48.280;14.292;2023-03-16T06:57:15;20.20;;;18.30;;
50417;SDS011;36346;48.280;14.292;2023-03-16T06:59:43;13.04;;;12.99;;
50417;SDS011;36346;48.280;14.292;2023-03-16T07:02:15;12.23;;;12.17;;
50417;SDS011;36346;48.280;14.292;2023-03-16T07:04:44;13.30;;;13.29;;
50417;SDS011;36346;48.280;14.292;2023-03-16T07:07:12;12.38;;;12.38;;
50417;SDS011;36346;48.280;14.292;2023-03-16T07:09:41;11.46;;;11.46;;
50417;SDS011;36346;48.280;14.292;2023-03-16T07:12:10;11.86;;;11.86;;
50417;SDS011;36346;48.280;14.292;2023-03-16T07:14:38;11.75;;;11.75;;
50417;SDS011;36346;48.280;14.292;2023-03-16T07:17:08;11.49;;;11.49;;
50417;SDS011;36346;48.280;14.292;2023-03-16T07:19:36;12.56;;;12.56;;
50417;SDS011;36346;48.280;14.292;2023-03-16T07:22:06;13.29;;;13.29;;
50417;SDS011;36346;48.280;14.292;2023-03-16T07:24:37;13.55;;;13.47;;
50417;SDS011;36346;48.280;14.292;2023-03-16T07:27:07;12.48;;;12.47;;
50417;SDS011;36346;48.280;14.292;2023-03-16T07:29:36;12.47;;;12.40;;
50417;SDS011;36346;48.280;14.292;2023-03-16T07:32:04;13.59;;;13.57;;
50417;SDS011;36346;48.280;14.292;2023-03-16T07:34:37;15.26;;;15.11;;
50417;SDS011;36346;48.280;14.292;2023-03-16T07:37:07;14.98;;;14.89;;
50417;SDS011;36346;48.280;14.292;2023-03-16T07:39:36;16.13;;;16.12;;
50417;SDS011;36346;48.280;14.292;2023-03-16T07:42:13;20.12;;;19.95;;
50417;SDS011;36346;48.280;14.292;2023-03-16T07:45:03;24.20;;;24.01;;
50417;SDS011;36346;48.280;14.292;2023-03-16T07:47:33;23.10;;;22.91;;
50417;SDS011;36346;48.280;14.292;2023-03-16T07:50:10;19.21;;;19.11;;
50417;SDS011;36346;48.280;14.292;2023-03-16T07:52:41;20.04;;;20.01;;
50417;SDS011;36346;48.280;14.292;2023-03-16T07:55:12;21.19;;;21.13;;
50417;SDS011;36346;48.280;14.292;2023-03-16T07:57:43;23.94;;;23.80;;
50417;SDS011;36346;48.280;14.292;2023-03-16T08:00:17;28.00;;;27.72;;
50417;SDS011;36346;48.280;14.292;2023-03-16T08:02:51;27.44;;;27.07;;
50417;SDS011;36346;48.280;14.292;2023-03-16T08:05:20;26.32;;;26.03;;
50417;SDS011;36346;48.280;14.292;2023-03-16T08:07:53;26.15;;;25.81;;
50417;SDS011;36346;48.280;14.292;2023-03-16T08:10:26;24.28;;;24.07;;
50417;SDS011;36346;48.280;14.292;2023-03-16T08:13:07;18.15;;;18.03;;
50417;SDS011;36346;48.280;14.292;2023-03-16T08:15:39;15.75;;;15.70;;
50417;SDS011;36346;48.280;14.292;2023-03-16T08:18:16;16.11;;;16.04;;
50417;SDS011;36346;48.280;14.292;2023-03-16T08:20:45;12.24;;;12.16;;
50417;SDS011;36346;48.280;14.292;2023-03-16T08:23:13;9.66;;;9.62;;
50417;SDS011;36346;48.280;14.292;2023-03-16T08:25:42;8.17;;;8.17;;
50417;SDS011;36346;48.280;14.292;2023-03-16T08:28:14;7.40;;;7.39;;
50417;SDS011;36346;48.280;14.292;2023-03-16T08:30:43;7.38;;;7.37;;
50417;SDS011;36346;48.280;14.292;2023-03-16T08:33:42;7.41;;;7.40;;
50417;SDS011;36346;48.280;14.292;2023-03-16T08:36:12;7.51;;;7.50;;
50417;SDS011;36346;48.280;14.292;2023-03-16T08:38:46;6.71;;;6.71;;
50417;SDS011;36346;48.280;14.292;2023-03-16T08:41:35;6.93;;;6.93;;
50417;SDS011;36346;48.280;14.292;2023-03-16T08:44:09;6.69;;;6.68;;
50417;SDS011;36346;48.280;14.292;2023-03-16T08:46:37;7.36;;;7.34;;
50417;SDS011;36346;48.280;14.292;2023-03-16T08:49:06;7.38;;;7.38;;
50417;SDS011;36346;48.280;14.292;2023-03-16T08:51:34;6.53;;;6.53;;
50417;SDS011;36346;48.280;14.292;2023-03-16T08:54:03;6.86;;;6.86;;
50417;SDS011;36346;48.280;14.292;2023-03-16T08:56:31;7.32;;;7.32;;
50417;SDS011;36346;48.280;14.292;2023-03-16T08:58:59;6.76;;;6.76;;
50417;SDS011;36346;48.280;14.292;2023-03-16T09:01:27;6.20;;;6.20;;
50417;SDS011;36346;48.280;14.292;2023-03-16T09:03:56;6.47;;;6.47;;
50417;SDS011;36346;48.280;14.292;2023-03-16T09:06:25;7.01;;;7.01;;
50417;SDS011;36346;48.280;14.292;2023-03-16T09:08:54;7.56;;;7.56;;
50417;SDS011;36346;48.280;14.292;2023-03-16T09:17:43;7.09;;;7.09;;
50417;SDS011;36346;48.280;14.292;2023-03-16T09:20:13;7.00;;;7.00;;
50417;SDS011;36346;48.280;14.292;2023-03-16T09:23:01;6.82;;;6.82;;
50417;SDS011;36346;48.280;14.292;2023-03-16T09:25:32;7.28;;;7.28;;
50417;SDS011;36346;48.280;14.292;2023-03-16T09:28:01;6.21;;;6.21;;
50417;SDS011;36346;48.280;14.292;2023-03-16T09:30:31;6.44;;;6.44;;
50417;SDS011;36346;48.280;14.292;2023-03-16T09:32:59;5.89;;;5.89;;
50417;SDS011;36346;48.280;14.292;2023-03-16T09:35:29;6.27;;;6.27;;
50417;SDS011;36346;48.280;14.292;2023-03-16T09:38:02;5.15;;;5.15;;
50417;SDS011;36346;48.280;14.292;2023-03-16T09:40:33;4.58;;;4.58;;
50417;SDS011;36346;48.280;14.292;2023-03-16T09:46:13;5.55;;;5.55;;
50417;SDS011;36346;48.280;14.292;2023-03-16T09:48:54;5.32;;;5.32;;
50417;SDS011;36346;48.280;14.292;2023-03-16T09:57:41;5.34;;;5.34;;
50417;SDS011;36346;48.280;14.292;2023-03-16T10:00:19;4.16;;;4.16;;
50417;SDS011;36346;48.280;14.292;2023-03-16T10:03:04;4.30;;;4.30;;
50417;SDS011;36346;48.280;14.292;2023-03-16T10:06:10;3.18;;;3.18;;
50417;SDS011;36346;48.280;14.292;2023-03-16T10:08:44;3.97;;;3.97;;
50417;SDS011;36346;48.280;14.292;2023-03-16T10:11:45;4.52;;;4.52;;
50417;SDS011;36346;48.280;14.292;2023-03-16T10:14:24;4.83;;;4.83;;
50417;SDS011;36346;48.280;14.292;2023-03-16T10:17:22;4.39;;;4.39;;
50417;SDS011;36346;48.280;14.292;2023-03-16T10:20:14;5.01;;;5.01;;
50417;SDS011;36346;48.280;14.292;2023-03-16T10:22:45;4.04;;;4.04;;
50417;SDS011;36346;48.280;14.292;2023-03-16T10:25:22;4.55;;;4.54;;
50417;SDS011;36346;48.280;14.292;2023-03-16T10:27:57;4.95;;;4.95;;
50417;SDS011;36346;48.280;14.292;2023-03-16T10:30:26;4.59;;;4.59;;
50417;SDS011;36346;48.280;14.292;2023-03-16T10:33:01;4.63;;;4.63;;
50417;SDS011;36346;48.280;14.292;2023-03-16T10:35:45;4.59;;;4.59;;
50417;SDS011;36346;48.280;14.292;2023-03-16T10:44:00;4.91;;;4.91;;
50417;SDS011;36346;48.280;14.292;2023-03-16T10:51:56;4.58;;;4.58;;
50417;SDS011;36346;48.280;14.292;2023-03-16T10:54:38;4.71;;;4.71;;
50417;SDS011;36346;48.280;14.292;2023-03-16T11:00:11;4.03;;;4.03;;
50417;SDS011;36346;48.280;14.292;2023-03-16T11:02:47;4.01;;;4.01;;
50417;SDS011;36346;48.280;14.292;2023-03-16T11:07:55;4.50;;;4.50;;
50417;SDS011;36346;48.280;14.292;2023-03-16T11:10:45;4.80;;;4.80;;
50417;SDS011;36346;48.280;14.292;2023-03-16T11:13:31;4.50;;;4.50;;
50417;SDS011;36346;48.280;14.292;2023-03-16T11:18:58;3.98;;;3.98;;
50417;SDS011;36346;48.280;14.292;2023-03-16T11:22:15;4.82;;;4.82;;
50417;SDS011;36346;48.280;14.292;2023-03-16T11:24:44;4.69;;;4.69;;
50417;SDS011;36346;48.280;14.292;2023-03-16T11:27:36;5.19;;;5.19;;
50417;SDS011;36346;48.280;14.292;2023-03-16T11:32:51;4.19;;;4.19;;
50417;SDS011;36346;48.280;14.292;2023-03-16T11:38:33;3.93;;;3.93;;
50417;SDS011;36346;48.280;14.292;2023-03-16T11:41:30;4.37;;;4.37;;
50417;SDS011;36346;48.280;14.292;2023-03-16T11:50:35;3.61;;;3.61;;
50417;SDS011;36346;48.280;14.292;2023-03-16T11:53:20;3.20;;;3.20;;
50417;SDS011;36346;48.280;14.292;2023-03-16T11:56:16;2.66;;;2.66;;
50417;SDS011;36346;48.280;14.292;2023-03-16T11:59:04;2.86;;;2.86;;
50417;SDS011;36346;48.280;14.292;2023-03-16T12:05:04;4.19;;;4.19;;
50417;SDS011;36346;48.280;14.292;2023-03-16T12:08:17;4.56;;;4.56;;
50417;SDS011;36346;48.280;14.292;2023-03-16T12:11:11;3.61;;;3.61;;
50417;SDS011;36346;48.280;14.292;2023-03-16T12:16:53;3.03;;;3.03;;
50417;SDS011;36346;48.280;14.292;2023-03-16T12:19:49;2.82;;;2.82;;
50417;SDS011;36346;48.280;14.292;2023-03-16T12:22:33;3.02;;;3.02;;
50417;SDS011;36346;48.280;14.292;2023-03-16T12:25:25;3.04;;;3.04;;
50417;SDS011;36346;48.280;14.292;2023-03-16T12:28:02;3.58;;;3.58;;
50417;SDS011;36346;48.280;14.292;2023-03-16T12:33:52;3.55;;;3.55;;
50417;SDS011;36346;48.280;14.292;2023-03-16T12:39:23;3.52;;;3.52;;
50417;SDS011;36346;48.280;14.292;2023-03-16T12:45:00;3.69;;;3.69;;
50417;SDS011;36346;48.280;14.292;2023-03-16T12:50:46;3.60;;;3.60;;
50417;SDS011;36346;48.280;14.292;2023-03-16T12:53:51;3.92;;;3.92;;
50417;SDS011;36346;48.280;14.292;2023-03-16T12:56:26;2.81;;;2.81;;
50417;SDS011;36346;48.280;14.292;2023-03-16T12:59:05;2.87;;;2.87;;
50417;SDS011;36346;48.280;14.292;2023-03-16T13:01:38;3.65;;;3.65;;
50417;SDS011;36346;48.280;14.292;2023-03-16T13:04:10;3.75;;;3.75;;
50417;SDS011;36346;48.280;14.292;2023-03-16T13:06:44;3.51;;;3.50;;
50417;SDS011;36346;48.280;14.292;2023-03-16T13:09:21;2.90;;;2.90;;
50417;SDS011;36346;48.280;14.292;2023-03-16T13:11:52;2.89;;;2.89;;
50417;SDS011;36346;48.280;14.292;2023-03-16T13:17:05;3.58;;;3.58;;
50417;SDS011;36346;48.280;14.292;2023-03-16T13:19:59;3.57;;;3.54;;
50417;SDS011;36346;48.280;14.292;2023-03-16T13:22:30;3.12;;;3.12;;
50417;SDS011;36346;48.280;14.292;2023-03-16T13:25:23;3.51;;;3.51;;
50417;SDS011;36346;48.280;14.292;2023-03-16T13:28:11;2.96;;;2.96;;
50417;SDS011;36346;48.280;14.292;2023-03-16T13:30:45;3.61;;;3.61;;
50417;SDS011;36346;48.280;14.292;2023-03-16T13:35:59;4.00;;;3.95;;
50417;SDS011;36346;48.280;14.292;2023-03-16T13:38:29;2.98;;;2.96;;
50417;SDS011;36346;48.280;14.292;2023-03-16T13:41:01;2.84;;;2.83;;
50417;SDS011;36346;48.280;14.292;2023-03-16T13:43:33;2.28;;;2.28;;
50417;SDS011;36346;48.280;14.292;2023-03-16T13:46:13;2.08;;;2.08;;
50417;SDS011;36346;48.280;14.292;2023-03-16T13:48:42;2.16;;;2.16;;
50417;SDS011;36346;48.280;14.292;2023-03-16T13:51:15;2.35;;;2.35;;
50417;SDS011;36346;48.280;14.292;2023-03-16T13:53:45;2.26;;;2.26;;
50417;SDS011;36346;48.280;14.292;2023-03-16T13:56:16;2.75;;;2.75;;
50417;SDS011;36346;48.280;14.292;2023-03-16T13:58:49;2.35;;;2.35;;
50417;SDS011;36346;48.280;14.292;2023-03-16T14:01:26;2.18;;;2.18;;
50417;SDS011;36346;48.280;14.292;2023-03-16T14:04:00;1.61;;;1.61;;
50417;SDS011;36346;48.280;14.292;2023-03-16T14:06:35;1.59;;;1.59;;
50417;SDS011;36346;48.280;14.292;2023-03-16T14:09:04;1.71;;;1.71;;
50417;SDS011;36346;48.280;14.292;2023-03-16T14:11:39;1.85;;;1.85;;
50417;SDS011;36346;48.280;14.292;2023-03-16T14:14:16;1.81;;;1.80;;
50417;SDS011;36346;48.280;14.292;2023-03-16T14:16:51;1.99;;;1.97;;
50417;SDS011;36346;48.280;14.292;2023-03-16T14:19:22;2.03;;;2.00;;
50417;SDS011;36346;48.280;14.292;2023-03-16T14:21:54;1.56;;;1.55;;
50417;SDS011;36346;48.280;14.292;2023-03-16T14:24:30;1.31;;;1.30;;
50417;SDS011;36346;48.280;14.292;2023-03-16T14:29:45;1.93;;;1.93;;
50417;SDS011;36346;48.280;14.292;2023-03-16T14:32:24;1.74;;;1.74;;
50417;SDS011;36346;48.280;14.292;2023-03-16T14:35:11;1.77;;;1.77;;
50417;SDS011;36346;48.280;14.292;2023-03-16T14:37:44;1.60;;;1.59;;
50417;SDS011;36346;48.280;14.292;2023-03-16T14:42:58;1.61;;;1.61;;
50417;SDS011;36346;48.280;14.292;2023-03-16T14:45:31;1.83;;;1.82;;
50417;SDS011;36346;48.280;14.292;2023-03-16T14:48:04;1.91;;;1.91;;
50417;SDS011;36346;48.280;14.292;2023-03-16T14:50:33;2.08;;;2.08;;
50417;SDS011;36346;48.280;14.292;2023-03-16T14:53:02;2.59;;;2.57;;
50417;SDS011;36346;48.280;14.292;2023-03-16T14:55:30;2.21;;;2.18;;
50417;SDS011;36346;48.280;14.292;2023-03-16T14:58:01;2.19;;;2.17;;
50417;SDS011;36346;48.280;14.292;2023-03-16T15:00:32;1.95;;;1.94;;
50417;SDS011;36346;48.280;14.292;2023-03-16T15:03:16;2.38;;;2.36;;
50417;SDS011;36346;48.280;14.292;2023-03-16T15:05:47;1.95;;;1.93;;
50417;SDS011;36346;48.280;14.292;2023-03-16T15:08:21;1.71;;;1.70;;
50417;SDS011;36346;48.280;14.292;2023-03-16T15:10:54;1.48;;;1.47;;
50417;SDS011;36346;48.280;14.292;2023-03-16T15:13:27;1.99;;;1.97;;
50417;SDS011;36346;48.280;14.292;2023-03-16T15:16:19;2.55;;;2.54;;
50417;SDS011;36346;48.280;14.292;2023-03-16T15:18:50;2.43;;;2.41;;
50417;SDS011;36346;48.280;14.292;2023-03-16T15:21:19;2.26;;;2.24;;
50417;SDS011;36346;48.280;14.292;2023-03-16T15:23:50;1.71;;;1.69;;
50417;SDS011;36346;48.280;14.292;2023-03-16T15:26:20;2.05;;;2.03;;
50417;SDS011;36346;48.280;14.292;2023-03-16T15:28:53;2.00;;;1.97;;
50417;SDS011;36346;48.280;14.292;2023-03-16T15:31:22;2.20;;;2.15;;
50417;SDS011;36346;48.280;14.292;2023-03-16T15:33:51;2.52;;;2.44;;
50417;SDS011;36346;48.280;14.292;2023-03-16T15:36:20;2.19;;;2.14;;
50417;SDS011;36346;48.280;14.292;2023-03-16T15:38:50;2.24;;;2.21;;
50417;SDS011;36346;48.280;14.292;2023-03-16T15:41:20;1.79;;;1.77;;
50417;SDS011;36346;48.280;14.292;2023-03-16T15:43:50;1.80;;;1.78;;
50417;SDS011;36346;48.280;14.292;2023-03-16T15:46:19;1.65;;;1.63;;
50417;SDS011;36346;48.280;14.292;2023-03-16T15:48:47;1.62;;;1.61;;
50417;SDS011;36346;48.280;14.292;2023-03-16T15:51:33;1.64;;;1.63;;
50417;SDS011;36346;48.280;14.292;2023-03-16T15:54:02;1.85;;;1.84;;
50417;SDS011;36346;48.280;14.292;2023-03-16T15:56:33;3.00;;;2.98;;
50417;SDS011;36346;48.280;14.292;2023-03-16T15:59:21;2.40;;;2.38;;
50417;SDS011;36346;48.280;14.292;2023-03-16T16:01:50;3.47;;;3.41;;
50417;SDS011;36346;48.280;14.292;2023-03-16T16:04:20;2.85;;;2.81;;
50417;SDS011;36346;48.280;14.292;2023-03-16T16:06:51;2.79;;;2.77;;
50417;SDS011;36346;48.280;14.292;2023-03-16T16:09:25;2.84;;;2.82;;
50417;SDS011;36346;48.280;14.292;2023-03-16T16:11:53;2.52;;;2.50;;
50417;SDS011;36346;48.280;14.292;2023-03-16T16:14:23;2.17;;;2.15;;
50417;SDS011;36346;48.280;14.292;2023-03-16T16:16:54;1.96;;;1.93;;
50417;SDS011;36346;48.280;14.292;2023-03-16T16:19:23;1.51;;;1.50;;
50417;SDS011;36346;48.280;14.292;2023-03-16T16:21:54;1.94;;;1.91;;
50417;SDS011;36346;48.280;14.292;2023-03-16T16:24:22;2.66;;;2.63;;
50417;SDS011;36346;48.280;14.292;2023-03-16T16:26:53;1.85;;;1.84;;
50417;SDS011;36346;48.280;14.292;2023-03-16T16:29:23;2.07;;;2.06;;
50417;SDS011;36346;48.280;14.292;2023-03-16T16:31:54;2.09;;;2.08;;
50417;SDS011;36346;48.280;14.292;2023-03-16T16:34:23;2.19;;;2.18;;
50417;SDS011;36346;48.280;14.292;2023-03-16T16:36:55;2.09;;;2.07;;
50417;SDS011;36346;48.280;14.292;2023-03-16T16:39:24;3.62;;;3.59;;